Time;durP1;ratioP1;P1;durP2;ratioP2;P2;SDS_P1;SDS_P2;PMS_P1;PMS_P2;Temp;Humidity;BMP_temperature;BMP_pressure;BME280_temperature;BME280_humidity;BME280_pressure;Samples;Min_cycle;Max_cycle;Signal;HPM_P1;HPM_P2
2021/08/19 00:00:51;;;;;;;12.40;10.77;;;15.50;99.90;;;;;;5007433;28;20562;-62
2021/08/19 00:03:20;;;;;;;14.13;10.47;;;15.50;99.90;;;;;;4991423;28;20249;-62
2021/08/19 00:05:50;;;;;;;14.40;10.73;;;15.40;99.90;;;;;;4987871;28;20242;-61
2021/08/19 00:08:20;;;;;;;14.97;11.47;;;15.40;99.90;;;;;;4986612;28;20834;-61
2021/08/19 00:10:48;;;;;;;11.60;10.30;;;15.40;99.90;;;;;;4988049;28;20234;-61
2021/08/19 00:13:19;;;;;;;12.73;10.37;;;15.40;99.90;;;;;;4980346;28;20262;-61
2021/08/19 00:15:50;;;;;;;12.97;10.73;;;15.40;99.90;;;;;;4988035;28;20646;-61
2021/08/19 00:18:19;;;;;;;14.73;10.93;;;15.40;99.90;;;;;;4980683;28;20244;-62
2021/08/19 00:20:49;;;;;;;16.03;10.50;;;15.40;99.90;;;;;;4987619;28;20237;-61
2021/08/19 00:23:19;;;;;;;11.87;10.43;;;15.40;99.90;;;;;;4982453;28;20601;-61
2021/08/19 00:25:48;;;;;;;14.23;10.47;;;15.40;99.90;;;;;;4988019;28;20226;-62
2021/08/19 00:28:19;;;;;;;12.67;10.63;;;15.40;99.90;;;;;;4980751;28;20233;-61
2021/08/19 00:30:47;;;;;;;13.87;10.20;;;15.40;99.90;;;;;;4987746;28;20251;-62
2021/08/19 00:33:15;;;;;;;13.73;10.57;;;15.40;99.90;;;;;;4997938;28;20237;-61
2021/08/19 00:35:43;;;;;;;14.13;10.90;;;15.30;99.90;;;;;;5007174;28;21281;-62
2021/08/19 00:38:12;;;;;;;14.53;10.20;;;15.30;99.90;;;;;;5006771;28;20291;-61
2021/08/19 00:40:40;;;;;;;15.97;10.27;;;15.30;99.90;;;;;;5007586;28;20260;-61
2021/08/19 00:43:08;;;;;;;13.47;10.93;;;15.20;99.90;;;;;;5006559;28;20299;-61
2021/08/19 00:45:41;;;;;;;14.33;10.27;;;15.20;99.90;;;;;;5006874;28;20323;-61
2021/08/19 00:48:11;;;;;;;11.63;9.83;;;15.30;99.90;;;;;;5006668;28;20237;-63
2021/08/19 00:50:40;;;;;;;12.53;9.77;;;15.30;99.90;;;;;;5007191;28;20240;-62
2021/08/19 00:53:09;;;;;;;10.93;9.60;;;15.20;99.90;;;;;;5006588;28;20685;-61
2021/08/19 00:55:37;;;;;;;11.60;10.07;;;15.20;99.90;;;;;;5002096;28;20245;-61
2021/08/19 00:58:06;;;;;;;12.07;10.50;;;15.20;99.90;;;;;;5006591;28;20237;-61
2021/08/19 01:00:34;;;;;;;13.40;9.73;;;15.20;99.90;;;;;;5010157;28;20237;-61
2021/08/19 01:03:04;;;;;;;11.37;9.23;;;15.20;99.90;;;;;;5008411;28;20593;-62
2021/08/19 01:05:35;;;;;;;11.43;9.40;;;15.20;99.90;;;;;;5006867;28;20242;-61
2021/08/19 01:08:03;;;;;;;10.87;9.77;;;15.20;99.90;;;;;;5006762;28;20267;-61
2021/08/19 01:10:31;;;;;;;14.33;9.70;;;15.20;99.90;;;;;;5006989;28;20241;-61
2021/08/19 01:13:00;;;;;;;11.97;9.53;;;15.10;99.90;;;;;;5006290;28;20705;-62
2021/08/19 01:15:28;;;;;;;10.97;9.57;;;15.10;99.90;;;;;;5007287;28;20237;-62
2021/08/19 01:17:58;;;;;;;10.87;9.77;;;15.20;99.90;;;;;;5010464;28;20236;-62
2021/08/19 01:20:28;;;;;;;13.53;10.03;;;15.20;99.90;;;;;;5010925;28;20237;-62
2021/08/19 01:22:58;;;;;;;11.20;9.20;;;15.10;99.90;;;;;;5010043;28;20245;-63
2021/08/19 01:25:27;;;;;;;12.80;9.53;;;15.10;99.90;;;;;;5010478;28;20724;-63
2021/08/19 01:27:57;;;;;;;12.37;9.90;;;15.20;99.90;;;;;;5010104;28;20333;-62
2021/08/19 01:30:26;;;;;;;12.53;10.00;;;15.10;99.90;;;;;;5010410;28;20241;-62
2021/08/19 01:32:54;;;;;;;11.70;10.07;;;15.10;99.90;;;;;;5010187;28;20256;-62
2021/08/19 01:35:23;;;;;;;10.27;9.27;;;15.10;99.90;;;;;;5010874;28;20812;-61
2021/08/19 01:37:52;;;;;;;12.90;10.20;;;15.10;99.90;;;;;;5009850;28;20316;-62
2021/08/19 01:40:20;;;;;;;12.63;11.03;;;15.10;99.90;;;;;;4995092;28;20242;-61
2021/08/19 01:42:48;;;;;;;15.97;11.60;;;15.10;99.90;;;;;;4990361;28;20237;-61
2021/08/19 01:45:19;;;;;;;12.40;10.13;;;15.10;99.90;;;;;;4989035;28;20248;-62
2021/08/19 01:47:48;;;;;;;13.30;10.67;;;15.10;99.90;;;;;;4990166;28;20737;-63
2021/08/19 01:50:16;;;;;;;13.17;11.77;;;15.10;99.90;;;;;;4990886;28;20593;-61
2021/08/19 01:52:46;;;;;;;14.50;11.80;;;15.10;99.90;;;;;;4989579;28;20284;-61
2021/08/19 01:55:15;;;;;;;14.30;12.10;;;15.20;99.90;;;;;;4990793;28;20990;-62
2021/08/19 01:57:43;;;;;;;14.43;12.93;;;15.20;99.90;;;;;;4990249;28;20324;-61
2021/08/19 02:00:12;;;;;;;14.23;12.57;;;15.20;99.90;;;;;;5000611;28;20240;-62
2021/08/19 02:02:41;;;;;;;14.87;12.33;;;15.20;99.90;;;;;;4970212;28;20301;-62
2021/08/19 02:05:11;;;;;;;13.83;11.97;;;15.20;99.90;;;;;;4962748;28;20684;-62
2021/08/19 02:07:39;;;;;;;13.53;12.10;;;15.10;99.90;;;;;;4970316;28;20247;-61
2021/08/19 02:10:08;;;;;;;13.73;12.37;;;15.20;99.90;;;;;;4971092;28;20239;-61
2021/08/19 02:12:36;;;;;;;14.10;12.60;;;15.20;99.90;;;;;;4970013;28;20603;-61
2021/08/19 02:15:06;;;;;;;13.60;12.20;;;15.20;99.90;;;;;;4970833;28;20241;-61
2021/08/19 02:17:34;;;;;;;14.07;12.77;;;15.20;99.90;;;;;;4970687;28;20238;-61
2021/08/19 02:20:04;;;;;;;14.27;12.77;;;15.20;99.90;;;;;;4970661;28;20231;-62
2021/08/19 02:22:32;;;;;;;15.53;13.57;;;15.20;99.90;;;;;;4951599;28;20290;-62
2021/08/19 02:25:00;;;;;;;14.77;13.37;;;15.20;99.90;;;;;;4950563;28;20699;-62
2021/08/19 02:27:29;;;;;;;13.27;11.97;;;15.20;99.90;;;;;;4949575;28;20251;-61
2021/08/19 02:29:57;;;;;;;13.97;12.67;;;15.20;99.90;;;;;;4951116;28;20235;-61
2021/08/19 02:32:26;;;;;;;14.77;12.73;;;15.20;99.90;;;;;;4950579;28;20622;-61
2021/08/19 02:34:58;;;;;;;13.67;12.30;;;15.30;99.90;;;;;;4951228;28;20258;-60
2021/08/19 02:37:27;;;;;;;13.40;12.00;;;15.30;99.90;;;;;;4944267;28;20254;-63
2021/08/19 02:39:56;;;;;;;14.87;12.07;;;15.30;99.90;;;;;;4951295;28;20259;-61
2021/08/19 02:42:24;;;;;;;13.20;11.87;;;15.30;99.90;;;;;;4950870;28;20231;-61
2021/08/19 02:44:52;;;;;;;16.13;12.90;;;15.30;99.90;;;;;;4969882;28;20234;-62
2021/08/19 02:47:20;;;;;;;14.53;12.47;;;15.30;99.90;;;;;;4970105;28;20246;-61
2021/08/19 02:49:48;;;;;;;14.83;11.77;;;15.30;99.90;;;;;;4970150;28;20250;-61
2021/08/19 02:52:16;;;;;;;15.00;12.40;;;15.30;99.90;;;;;;4969896;28;20234;-61
2021/08/19 02:54:46;;;;;;;14.37;11.53;;;15.30;99.90;;;;;;4970064;28;20899;-61
2021/08/19 02:57:15;;;;;;;12.77;11.47;;;15.20;99.90;;;;;;4969437;28;20623;-61
2021/08/19 02:59:43;;;;;;;14.20;12.53;;;15.20;99.90;;;;;;4969644;28;20250;-63
2021/08/19 03:02:11;;;;;;;13.70;12.33;;;15.20;99.90;;;;;;5000790;28;20229;-62
2021/08/19 03:04:39;;;;;;;14.70;13.30;;;15.20;99.90;;;;;;5008805;28;20279;-62
2021/08/19 03:07:09;;;;;;;14.33;12.90;;;15.20;99.90;;;;;;5008244;28;20244;-62
2021/08/19 03:09:37;;;;;;;14.00;12.60;;;15.20;99.90;;;;;;5008924;28;20652;-62
2021/08/19 03:12:08;;;;;;;14.17;12.27;;;15.10;99.90;;;;;;5008012;28;20597;-63
2021/08/19 03:14:36;;;;;;;14.23;12.13;;;15.10;99.90;;;;;;5008512;28;20701;-62
2021/08/19 03:17:07;;;;;;;13.43;11.90;;;15.00;99.90;;;;;;5008377;28;20325;-62
2021/08/19 03:19:37;;;;;;;14.27;11.03;;;15.10;99.90;;;;;;5008458;28;20245;-61
2021/08/19 03:22:07;;;;;;;12.33;11.13;;;15.10;99.90;;;;;;5007822;28;20243;-62
2021/08/19 03:24:36;;;;;;;13.67;11.30;;;15.10;99.90;;;;;;5008062;28;20697;-62
2021/08/19 03:27:06;;;;;;;14.07;11.80;;;15.10;99.90;;;;;;5008328;28;20716;-61
2021/08/19 03:29:35;;;;;;;14.80;12.77;;;15.10;99.90;;;;;;5008462;28;20752;-61
2021/08/19 03:32:03;;;;;;;13.23;11.87;;;15.10;99.90;;;;;;5007981;28;20247;-61
2021/08/19 03:34:31;;;;;;;16.70;12.60;;;15.10;99.90;;;;;;5008178;28;20287;-61
2021/08/19 03:37:06;;;;;;;13.00;11.57;;;15.10;99.90;;;;;;5007705;28;20233;-62
2021/08/19 03:39:35;;;;;;;15.03;12.23;;;15.10;99.90;;;;;;5008047;28;20248;-61
2021/08/19 03:42:04;;;;;;;16.27;11.67;;;15.20;99.90;;;;;;5007439;28;20235;-62
2021/08/19 03:44:34;;;;;;;14.97;12.00;;;15.20;99.90;;;;;;5007790;28;20246;-61
2021/08/19 03:47:04;;;;;;;13.73;12.43;;;15.20;99.90;;;;;;5007484;28;20237;-62
2021/08/19 03:49:32;;;;;;;13.73;12.33;;;15.20;99.90;;;;;;5008113;28;20237;-61
2021/08/19 03:52:00;;;;;;;13.13;11.80;;;15.10;99.90;;;;;;5007457;28;20586;-63
2021/08/19 03:54:29;;;;;;;12.60;11.17;;;15.10;99.90;;;;;;5007436;28;20244;-62
2021/08/19 03:56:57;;;;;;;12.10;11.00;;;15.10;99.90;;;;;;5004544;28;20237;-61
2021/08/19 03:59:25;;;;;;;11.50;10.40;;;15.10;99.90;;;;;;5008260;28;20747;-62
2021/08/19 04:01:54;;;;;;;12.13;10.87;;;15.10;99.90;;;;;;5007602;28;20237;-61
2021/08/19 04:04:23;;;;;;;13.17;11.97;;;15.10;99.90;;;;;;5007581;28;20253;-62
2021/08/19 04:06:51;;;;;;;13.20;12.00;;;15.00;99.90;;;;;;5007480;28;20243;-62
2021/08/19 04:09:19;;;;;;;14.57;13.17;;;15.10;99.90;;;;;;5008337;28;20237;-61
2021/08/19 04:11:47;;;;;;;14.27;12.77;;;15.10;99.90;;;;;;5007226;28;20267;-62
2021/08/19 04:14:15;;;;;;;13.67;12.27;;;15.10;99.90;;;;;;5007436;28;20566;-61
2021/08/19 04:16:43;;;;;;;14.23;12.73;;;15.20;99.90;;;;;;5002869;28;20236;-62
2021/08/19 04:19:13;;;;;;;13.20;11.93;;;15.10;99.90;;;;;;5007391;28;20315;-61
2021/08/19 04:21:43;;;;;;;13.77;12.47;;;15.10;99.90;;;;;;5007104;28;20263;-62
2021/08/19 04:24:11;;;;;;;13.90;12.40;;;15.10;99.90;;;;;;5007132;28;20275;-61
2021/08/19 04:26:39;;;;;;;13.83;12.43;;;15.10;99.90;;;;;;5007502;28;20237;-61
2021/08/19 04:29:07;;;;;;;14.73;12.77;;;15.10;99.90;;;;;;5006773;28;20233;-62
2021/08/19 04:31:38;;;;;;;13.40;11.90;;;15.10;99.90;;;;;;5006785;28;20271;-61
2021/08/19 04:34:06;;;;;;;13.63;12.20;;;15.10;99.90;;;;;;5006588;28;20240;-61
2021/08/19 04:36:36;;;;;;;12.87;11.53;;;15.10;99.90;;;;;;5007696;28;20241;-60
2021/08/19 04:39:04;;;;;;;12.93;11.63;;;15.10;99.90;;;;;;5007117;28;20257;-61
2021/08/19 04:41:32;;;;;;;12.47;11.17;;;15.10;99.90;;;;;;5007243;28;20237;-60
2021/08/19 04:44:00;;;;;;;12.50;11.23;;;15.10;99.90;;;;;;5006881;28;20641;-60
2021/08/19 04:46:28;;;;;;;12.93;11.17;;;15.10;99.90;;;;;;5007461;28;20244;-62
2021/08/19 04:49:05;;;;;;;12.40;11.10;;;15.00;99.90;;;;;;5012483;28;20239;-61
2021/08/19 04:51:34;;;;;;;13.97;11.60;;;15.10;99.90;;;;;;5019725;28;20320;-61
2021/08/19 04:54:04;;;;;;;12.00;10.73;;;15.10;99.90;;;;;;5019428;28;20696;-62
2021/08/19 04:56:36;;;;;;;16.60;10.80;;;15.10;99.90;;;;;;5019001;28;20792;-61
2021/08/19 04:59:05;;;;;;;15.33;12.13;;;15.10;99.90;;;;;;5011222;28;20241;-60
2021/08/19 05:01:33;;;;;;;13.00;11.23;;;15.10;99.90;;;;;;5010601;28;20824;-61
2021/08/19 05:04:03;;;;;;;13.03;10.90;;;15.10;99.90;;;;;;5010642;28;20239;-62
2021/08/19 05:06:32;;;;;;;14.30;11.33;;;15.10;99.90;;;;;;5016058;28;20236;-61
2021/08/19 05:09:07;;;;;;;15.53;11.57;;;15.10;99.90;;;;;;5015786;28;20269;-62
2021/08/19 05:11:35;;;;;;;12.53;11.13;;;15.20;99.90;;;;;;5009698;28;20249;-62
2021/08/19 05:14:04;;;;;;;12.80;10.73;;;15.20;99.90;;;;;;5013523;28;20558;-61
2021/08/19 05:16:33;;;;;;;16.63;10.90;;;15.10;99.90;;;;;;5018391;28;20229;-62
2021/08/19 05:19:01;;;;;;;12.70;9.57;;;15.20;99.90;;;;;;5009328;28;20608;-61
2021/08/19 05:21:30;;;;;;;10.93;9.83;;;15.20;99.90;;;;;;5008931;28;20354;-61
2021/08/19 05:23:58;;;;;;;11.50;9.97;;;15.20;99.90;;;;;;5015645;28;20705;-61
2021/08/19 05:26:27;;;;;;;10.30;9.03;;;15.20;99.90;;;;;;5007300;28;20623;-62
2021/08/19 05:28:55;;;;;;;11.23;8.67;;;15.20;99.90;;;;;;5008929;28;20626;-61
2021/08/19 05:31:23;;;;;;;10.20;9.00;;;15.20;99.90;;;;;;5008875;28;20838;-61
2021/08/19 05:33:54;;;;;;;14.97;9.80;;;15.20;99.90;;;;;;5007711;28;20236;-61
2021/08/19 05:36:23;;;;;;;9.43;8.43;;;15.30;99.90;;;;;;4989220;28;20245;-61
2021/08/19 05:38:51;;;;;;;14.10;9.30;;;15.30;99.90;;;;;;4989122;28;20244;-63
2021/08/19 05:41:19;;;;;;;11.70;8.97;;;15.30;99.90;;;;;;4989155;28;20274;-61
2021/08/19 05:43:48;;;;;;;13.30;8.63;;;15.30;99.90;;;;;;4987822;28;20253;-62
2021/08/19 05:46:16;;;;;;;11.80;9.07;;;15.30;99.90;;;;;;4980823;28;20748;-61
2021/08/19 05:48:48;;;;;;;9.83;8.77;;;15.30;99.90;;;;;;4987649;28;20668;-61
2021/08/19 05:51:16;;;;;;;12.73;9.23;;;15.30;99.90;;;;;;4987695;28;20249;-62
2021/08/19 05:53:44;;;;;;;9.97;8.90;;;15.30;99.90;;;;;;4986482;28;20300;-60
2021/08/19 05:56:12;;;;;;;11.77;9.30;;;15.30;99.90;;;;;;4987204;28;20618;-61
2021/08/19 05:58:40;;;;;;;11.47;9.10;;;15.30;99.90;;;;;;4985664;28;20250;-62
2021/08/19 06:01:10;;;;;;;14.27;9.97;;;15.40;99.90;;;;;;4984749;28;20304;-61
2021/08/19 06:03:38;;;;;;;12.33;9.00;;;15.30;99.90;;;;;;4985406;28;21120;-62
2021/08/19 06:06:07;;;;;;;11.80;9.30;;;15.30;99.90;;;;;;4986437;28;20245;-61
2021/08/19 06:08:35;;;;;;;10.67;8.87;;;15.40;99.90;;;;;;4985719;28;20237;-61
2021/08/19 06:11:03;;;;;;;12.23;9.77;;;15.30;99.90;;;;;;4986214;28;20665;-61
2021/08/19 06:13:31;;;;;;;13.97;9.87;;;15.40;99.90;;;;;;4985087;28;20252;-62
2021/08/19 06:15:59;;;;;;;13.43;9.83;;;15.40;99.90;;;;;;4985618;28;20754;-60
2021/08/19 06:18:29;;;;;;;13.07;9.97;;;15.30;99.90;;;;;;4985764;28;20252;-62
2021/08/19 06:20:57;;;;;;;11.17;9.57;;;15.30;99.90;;;;;;4985983;28;20261;-62
2021/08/19 06:23:25;;;;;;;14.70;9.53;;;15.30;99.90;;;;;;4986020;28;20598;-62
2021/08/19 06:25:53;;;;;;;10.43;9.03;;;15.40;99.90;;;;;;4985815;28;20818;-62
2021/08/19 06:28:24;;;;;;;11.30;9.23;;;15.40;99.90;;;;;;4985768;28;20746;-62
2021/08/19 06:30:53;;;;;;;12.73;9.90;;;15.30;99.90;;;;;;4987262;28;20329;-61
2021/08/19 06:33:21;;;;;;;11.03;9.17;;;15.40;99.90;;;;;;4986487;28;20246;-62
2021/08/19 06:35:51;;;;;;;14.63;9.43;;;15.30;99.90;;;;;;4987178;28;20296;-62
2021/08/19 06:38:19;;;;;;;10.57;9.17;;;15.40;99.90;;;;;;4979102;28;20276;-62
2021/08/19 06:40:47;;;;;;;10.07;8.90;;;15.40;99.90;;;;;;4986207;28;20324;-63
2021/08/19 06:43:15;;;;;;;11.80;9.73;;;15.50;99.90;;;;;;4986137;28;20234;-61
2021/08/19 06:45:43;;;;;;;10.53;9.53;;;15.50;99.90;;;;;;4986024;28;21290;-62
2021/08/19 06:48:12;;;;;;;10.50;9.40;;;15.40;99.90;;;;;;4984553;28;20233;-62
2021/08/19 06:50:40;;;;;;;12.40;9.53;;;15.50;99.90;;;;;;4983542;28;20292;-63
2021/08/19 06:53:09;;;;;;;10.77;9.70;;;15.50;99.90;;;;;;4984385;28;20229;-61
2021/08/19 06:55:37;;;;;;;12.13;10.33;;;15.40;99.90;;;;;;4989009;28;20242;-62
2021/08/19 06:58:05;;;;;;;11.90;9.87;;;15.40;99.90;;;;;;4985416;28;20225;-61
2021/08/19 07:00:34;;;;;;;10.37;9.37;;;15.50;99.90;;;;;;4986268;28;20642;-63
2021/08/19 07:03:05;;;;;;;10.67;8.73;;;15.50;99.90;;;;;;4985099;28;20601;-63
2021/08/19 07:05:33;;;;;;;9.70;8.33;;;15.60;99.90;;;;;;4985796;28;20353;-63
2021/08/19 07:08:01;;;;;;;8.97;8.07;;;15.60;99.90;;;;;;4985813;28;20321;-63
2021/08/19 07:10:31;;;;;;;9.53;8.17;;;15.70;99.90;;;;;;4985874;28;20328;-62
2021/08/19 07:12:59;;;;;;;8.70;7.80;;;15.70;99.90;;;;;;4985435;28;20625;-62
2021/08/19 07:15:28;;;;;;;8.97;8.00;;;15.70;99.90;;;;;;4985599;28;20312;-62
2021/08/19 07:17:56;;;;;;;9.00;7.77;;;15.80;99.90;;;;;;4986115;28;20240;-63
2021/08/19 07:20:24;;;;;;;8.43;7.57;;;15.80;99.90;;;;;;4985282;28;20261;-63
2021/08/19 07:22:52;;;;;;;8.43;7.47;;;15.90;99.90;;;;;;5013435;28;20241;-64
2021/08/19 07:25:22;;;;;;;9.77;7.50;;;15.90;99.90;;;;;;5012869;28;20676;-63
2021/08/19 07:27:52;;;;;;;8.07;7.20;;;15.90;99.90;;;;;;5009204;28;20693;-63
2021/08/19 07:30:20;;;;;;;7.93;7.13;;;16.00;99.90;;;;;;5010032;28;20776;-62
2021/08/19 07:32:48;;;;;;;7.73;6.57;;;16.00;99.90;;;;;;5010382;28;20264;-62
2021/08/19 07:35:17;;;;;;;7.90;6.40;;;16.00;99.90;;;;;;5005035;28;20331;-62
2021/08/19 07:37:48;;;;;;;7.60;6.27;;;16.00;99.90;;;;;;5004988;28;20241;-62
2021/08/19 07:40:17;;;;;;;5.63;5.03;;;16.00;99.90;;;;;;5004527;28;20582;-62
2021/08/19 07:42:46;;;;;;;7.40;5.93;;;16.10;99.90;;;;;;5004287;28;20251;-62
2021/08/19 07:45:16;;;;;;;7.63;6.23;;;16.10;99.90;;;;;;5002936;28;20240;-62
2021/08/19 07:47:44;;;;;;;10.33;6.93;;;16.10;99.90;;;;;;5003236;28;20598;-62
2021/08/19 07:50:13;;;;;;;7.30;6.60;;;16.10;99.90;;;;;;5003594;28;20443;-63
2021/08/19 07:52:42;;;;;;;8.47;7.00;;;16.20;99.90;;;;;;5003037;28;20324;-62
2021/08/19 07:55:12;;;;;;;11.00;7.70;;;16.30;99.90;;;;;;5003501;28;20337;-63
2021/08/19 07:57:41;;;;;;;8.80;7.80;;;16.30;99.90;;;;;;4998635;28;20671;-62
2021/08/19 08:00:11;;;;;;;8.63;7.50;;;16.40;99.90;;;;;;5003819;28;20244;-61
2021/08/19 08:02:40;;;;;;;9.90;7.70;;;16.50;99.90;;;;;;5003257;28;20261;-62
2021/08/19 08:05:09;;;;;;;9.37;6.97;;;16.50;99.90;;;;;;5003277;28;20242;-63
2021/08/19 08:07:38;;;;;;;8.37;7.47;;;16.70;99.90;;;;;;5008270;28;20791;-63
2021/08/19 08:10:07;;;;;;;7.97;6.90;;;16.70;99.90;;;;;;5003391;28;20723;-62
2021/08/19 08:12:35;;;;;;;8.80;6.60;;;16.80;99.90;;;;;;5003772;28;20249;-62
2021/08/19 08:15:04;;;;;;;7.03;6.33;;;16.80;99.90;;;;;;5003969;28;20328;-62
2021/08/19 08:17:34;;;;;;;7.30;6.60;;;16.90;99.90;;;;;;5006934;28;20760;-62
2021/08/19 08:20:05;;;;;;;8.87;7.10;;;17.10;99.90;;;;;;5007012;28;20233;-62
2021/08/19 08:22:33;;;;;;;10.97;6.70;;;17.20;99.90;;;;;;5005972;28;20261;-62
2021/08/19 08:25:01;;;;;;;8.50;7.60;;;17.30;99.90;;;;;;5006901;28;20237;-62
2021/08/19 08:27:29;;;;;;;9.07;6.90;;;17.50;99.90;;;;;;5006737;28;20281;-62
2021/08/19 08:29:57;;;;;;;9.60;7.60;;;17.60;99.90;;;;;;5007011;28;20235;-62
2021/08/19 08:32:26;;;;;;;9.23;7.20;;;17.80;99.90;;;;;;5006829;28;20271;-62
2021/08/19 08:34:54;;;;;;;9.33;7.00;;;18.00;99.90;;;;;;5006708;28;20247;-62
2021/08/19 08:37:24;;;;;;;9.00;6.73;;;18.40;99.90;;;;;;5006661;28;20275;-62
2021/08/19 08:39:52;;;;;;;7.83;6.30;;;18.50;99.90;;;;;;5006498;28;20245;-64
2021/08/19 08:42:21;;;;;;;7.60;5.97;;;18.50;99.90;;;;;;5006064;28;20263;-62
2021/08/19 08:44:49;;;;;;;6.43;5.63;;;18.50;99.90;;;;;;5006879;28;20255;-63
2021/08/19 08:47:19;;;;;;;6.93;5.80;;;18.50;99.90;;;;;;5002716;28;20265;-63
2021/08/19 08:49:52;;;;;;;7.33;5.57;;;18.50;99.90;;;;;;5006128;28;21052;-62
2021/08/19 08:52:20;;;;;;;7.07;5.80;;;18.70;99.90;;;;;;5006746;28;20242;-62
2021/08/19 08:54:51;;;;;;;7.07;5.67;;;18.70;99.90;;;;;;5010494;28;20237;-63
2021/08/19 08:57:19;;;;;;;6.33;5.60;;;18.70;99.90;;;;;;5009999;28;20240;-63
2021/08/19 08:59:47;;;;;;;7.17;5.40;;;18.80;99.90;;;;;;5012884;28;20248;-62
2021/08/19 09:02:19;;;;;;;7.90;4.87;;;18.90;99.90;;;;;;5014610;28;20247;-63
2021/08/19 09:04:48;;;;;;;5.60;4.90;;;19.00;99.90;;;;;;5002604;28;20270;-62
2021/08/19 09:07:16;;;;;;;6.50;4.90;;;19.00;99.90;;;;;;5006302;28;20263;-62
2021/08/19 09:09:44;;;;;;;6.93;5.50;;;18.90;99.90;;;;;;5006452;28;20258;-62
2021/08/19 09:12:22;;;;;;;5.73;4.67;;;18.90;99.90;;;;;;5005936;28;20714;-62
2021/08/19 09:14:53;;;;;;;5.57;4.80;;;18.70;99.90;;;;;;5006481;28;20297;-63
2021/08/19 09:17:40;;;;;;;6.33;4.90;;;18.60;99.90;;;;;;4999319;28;20599;-63
2021/08/19 09:20:09;;;;;;;8.33;5.03;;;18.60;99.90;;;;;;5005357;28;20260;-63
2021/08/19 09:22:55;;;;;;;5.53;4.93;;;18.60;99.90;;;;;;5005441;28;20240;-63
2021/08/19 09:25:32;;;;;;;5.90;5.30;;;18.50;99.90;;;;;;5002888;28;20320;-64
2021/08/19 09:28:16;;;;;;;6.87;5.20;;;18.50;99.90;;;;;;5005592;28;20235;-64
2021/08/19 09:30:48;;;;;;;6.17;5.57;;;18.50;99.90;;;;;;5006448;28;20657;-63
2021/08/19 09:33:19;;;;;;;7.53;6.40;;;18.60;99.90;;;;;;5005100;28;20376;-63
2021/08/19 09:35:49;;;;;;;9.00;6.87;;;18.60;99.90;;;;;;5013851;28;22035;-62
2021/08/19 09:38:18;;;;;;;7.47;6.53;;;18.50;99.90;;;;;;5021020;28;20324;-62
2021/08/19 09:41:06;;;;;;;10.10;6.93;;;18.50;99.90;;;;;;5020428;28;20647;-63
2021/08/19 09:43:41;;;;;;;8.67;7.20;;;18.60;99.90;;;;;;5006061;28;20290;-63
2021/08/19 09:46:10;;;;;;;8.67;7.77;;;18.60;99.90;;;;;;5015470;28;20285;-63
2021/08/19 09:48:38;;;;;;;8.27;7.30;;;18.50;99.90;;;;;;5017370;28;20246;-63
2021/08/19 09:51:15;;;;;;;8.67;7.33;;;18.70;99.90;;;;;;5016984;28;20257;-62
2021/08/19 09:53:44;;;;;;;8.53;7.70;;;18.80;99.90;;;;;;5017807;28;20308;-63
2021/08/19 09:56:13;;;;;;;8.80;7.90;;;18.70;99.90;;;;;;5017629;28;20235;-64
2021/08/19 09:58:43;;;;;;;9.53;7.40;;;18.50;99.90;;;;;;5013959;28;20286;-62
2021/08/19 10:01:11;;;;;;;8.47;7.47;;;18.20;99.90;;;;;;5019699;28;20604;-62
2021/08/19 10:03:39;;;;;;;9.27;7.57;;;18.10;99.90;;;;;;5016680;28;20231;-63
2021/08/19 10:06:09;;;;;;;7.67;6.87;;;17.90;99.90;;;;;;5016074;28;20653;-62
2021/08/19 10:08:38;;;;;;;7.90;6.87;;;17.90;99.90;;;;;;5017194;28;20238;-62
2021/08/19 10:11:08;;;;;;;7.30;6.20;;;18.00;99.90;;;;;;5017199;28;20237;-63
2021/08/19 10:13:39;;;;;;;7.77;6.60;;;18.10;99.90;;;;;;5017353;28;20543;-63
2021/08/19 10:16:11;;;;;;;8.03;6.43;;;18.20;99.90;;;;;;5017303;28;20327;-62
2021/08/19 10:18:42;;;;;;;7.37;6.47;;;18.20;99.90;;;;;;5018134;28;20267;-63
2021/08/19 10:21:15;;;;;;;8.27;6.43;;;18.30;99.90;;;;;;5016961;28;20268;-64
2021/08/19 10:24:03;;;;;;;9.50;6.33;;;18.40;99.90;;;;;;5006692;28;20311;-63
2021/08/19 10:26:31;;;;;;;9.90;7.20;;;18.40;99.90;;;;;;5009052;28;20246;-63
2021/08/19 10:29:01;;;;;;;11.33;7.37;;;18.60;99.90;;;;;;5009047;28;20232;-63
2021/08/19 10:31:47;;;;;;;10.47;6.50;;;19.00;99.90;;;;;;5008769;28;20248;-62
2021/08/19 10:34:17;;;;;;;10.13;6.83;;;19.50;99.90;;;;;;5008359;28;20229;-63
2021/08/19 10:36:53;;;;;;;8.57;6.77;;;19.80;99.90;;;;;;5009216;28;20615;-63
2021/08/19 10:39:31;;;;;;;9.47;7.03;;;19.80;99.90;;;;;;4989663;28;20788;-64
2021/08/19 10:42:00;;;;;;;9.23;7.13;;;19.70;99.90;;;;;;5008491;28;20607;-63
2021/08/19 10:44:34;;;;;;;8.67;6.77;;;19.60;99.90;;;;;;5008599;28;20246;-63
2021/08/19 10:47:05;;;;;;;8.63;7.20;;;19.50;99.90;;;;;;5008166;28;20827;-63
2021/08/19 10:49:41;;;;;;;10.33;7.93;;;19.40;99.90;;;;;;5006991;28;20253;-63
2021/08/19 10:52:29;;;;;;;12.30;7.47;;;19.40;99.90;;;;;;5006901;28;20682;-62
2021/08/19 10:55:15;;;;;;;10.90;7.87;;;19.20;99.90;;;;;;4996896;28;20235;-65
2021/08/19 10:57:48;;;;;;;9.53;7.77;;;19.10;99.90;;;;;;4988393;28;21275;-64
2021/08/19 11:00:17;;;;;;;10.60;7.90;;;19.00;99.90;;;;;;4988608;28;20271;-63
2021/08/19 11:02:48;;;;;;;10.57;7.40;;;18.90;99.90;;;;;;4994170;28;20239;-63
2021/08/19 11:05:58;;;;;;;11.20;7.83;;;18.80;99.90;;;;;;5002742;28;20631;-63
2021/08/19 11:08:44;;;;;;;11.63;8.13;;;18.70;99.90;;;;;;5002095;28;20326;-63
2021/08/19 11:11:14;;;;;;;11.33;7.30;;;18.80;99.90;;;;;;5008138;28;20325;-63
2021/08/19 11:13:48;;;;;;;10.90;7.37;;;18.80;99.90;;;;;;5008267;28;20271;-63
2021/08/19 11:16:18;;;;;;;11.47;7.90;;;18.70;99.90;;;;;;5002813;28;21008;-64
2021/08/19 11:18:51;;;;;;;10.40;7.60;;;18.60;99.90;;;;;;5008112;28;20245;-62
2021/08/19 11:21:19;;;;;;;11.47;7.33;;;18.60;99.90;;;;;;5006672;28;20240;-63
2021/08/19 11:23:47;;;;;;;11.10;8.07;;;18.50;99.90;;;;;;5007454;28;20738;-63
2021/08/19 11:26:19;;;;;;;9.50;6.93;;;18.40;99.90;;;;;;5008441;28;20575;-64
2021/08/19 11:28:50;;;;;;;10.23;7.67;;;18.30;99.90;;;;;;5008149;28;20718;-62
2021/08/19 11:31:20;;;;;;;10.67;8.00;;;18.30;99.90;;;;;;4996721;28;20322;-62
2021/08/19 11:33:58;;;;;;;9.10;7.83;;;18.20;99.90;;;;;;5006964;28;20267;-62
2021/08/19 11:36:26;;;;;;;11.67;7.80;;;18.20;99.90;;;;;;5001239;28;20329;-63
2021/08/19 11:38:59;;;;;;;12.83;8.30;;;18.10;99.90;;;;;;5008406;28;20242;-64
2021/08/19 11:41:29;;;;;;;10.17;7.97;;;18.10;99.90;;;;;;5008289;28;20335;-64
2021/08/19 11:44:01;;;;;;;9.40;6.37;;;18.10;99.90;;;;;;5007505;28;20353;-63
2021/08/19 11:46:30;;;;;;;10.13;8.13;;;18.20;99.90;;;;;;5007692;28;20241;-63
2021/08/19 11:49:03;;;;;;;11.77;8.03;;;18.20;99.90;;;;;;5007401;28;20330;-63
2021/08/19 11:51:34;;;;;;;13.23;8.07;;;18.20;99.90;;;;;;5007661;28;20240;-63
2021/08/19 11:54:04;;;;;;;8.77;7.20;;;18.20;99.90;;;;;;5007436;28;20238;-63
2021/08/19 11:56:33;;;;;;;11.63;8.53;;;18.20;99.90;;;;;;5007233;28;20585;-63
2021/08/19 11:59:06;;;;;;;11.00;8.53;;;18.20;99.90;;;;;;5007518;28;20238;-63
2021/08/19 12:01:36;;;;;;;12.27;8.77;;;18.20;99.90;;;;;;5007009;28;20246;-63
2021/08/19 12:04:08;;;;;;;14.97;8.60;;;18.20;99.90;;;;;;5006894;28;20240;-63
2021/08/19 12:06:36;;;;;;;12.73;9.07;;;18.30;99.90;;;;;;5007474;28;20243;-62
2021/08/19 12:09:06;;;;;;;11.77;9.67;;;18.30;99.90;;;;;;5007344;28;20324;-63
2021/08/19 12:11:40;;;;;;;11.57;8.03;;;18.20;99.90;;;;;;5007323;28;20291;-63
2021/08/19 12:14:10;;;;;;;11.17;8.37;;;18.30;99.90;;;;;;5006681;28;20699;-62
2021/08/19 12:16:46;;;;;;;10.30;8.17;;;18.40;99.90;;;;;;5007433;28;20276;-62
2021/08/19 12:19:17;;;;;;;11.80;8.40;;;18.50;99.90;;;;;;5007017;28;20325;-63
2021/08/19 12:21:56;;;;;;;9.60;7.90;;;18.70;99.90;;;;;;5007008;28;20628;-63
2021/08/19 12:24:26;;;;;;;10.77;8.67;;;18.90;99.90;;;;;;5007019;28;20317;-64
2021/08/19 12:27:06;;;;;;;10.30;8.50;;;19.10;99.90;;;;;;5007462;28;20233;-64
2021/08/19 12:29:36;;;;;;;10.27;7.83;;;19.20;99.90;;;;;;4987675;28;20331;-62
2021/08/19 12:32:05;;;;;;;11.37;8.53;;;19.40;99.90;;;;;;4987197;28;20243;-63
2021/08/19 12:34:54;;;;;;;10.63;8.17;;;19.60;99.90;;;;;;4987135;28;20237;-63
2021/08/19 12:37:23;;;;;;;11.70;8.13;;;19.70;99.90;;;;;;4984515;28;20325;-63
2021/08/19 12:39:51;;;;;;;10.20;8.00;;;19.70;99.90;;;;;;4987923;28;20267;-64
2021/08/19 12:42:19;;;;;;;10.20;8.27;;;19.80;99.90;;;;;;4981858;28;20629;-63
2021/08/19 12:45:04;;;;;;;10.77;8.50;;;19.90;99.90;;;;;;5006438;28;20240;-63
2021/08/19 12:47:33;;;;;;;13.87;7.97;;;20.00;99.90;;;;;;4999616;28;20340;-62
2021/08/19 12:50:09;;;;;;;11.53;7.70;;;20.10;99.90;;;;;;5006574;28;20290;-63